Mud River, Canada
Current Conditions -  °F | °C
As of 11:00 PM on Saturday 25 Oct 2014 (Local Time) from CYXS Reporting Station
Light Snow Light Snow  
Wind Chill: 24°   Ceiling: 200
Heat Index: 32°   Visibility: 2.5mi
Dew Point: 32°   Wind: 9mph
Humidity: 100%   Direction: 350°N
Pressure: 29.42"   Gusts: NA
Location:  53.77°N, 123.05°W
Report Text: CYXS 260600Z AUTO 35008KT 2 1/2SM -SN BKN002 OVC008 00/00 A2942 RMK VIS VRB 2 1/4-3 ICG PCPN 0.5MM PAST HR SLP987
Loading
Personal Weather Stations






























Interactive Weather Map
Tropical Storm Tracking
New forecast layout! Learn more

10-Day Weather Forecast

Advertisements
Track Severe Weather on mobile